ADDS METAR Data

Data at: 0529 UTC 20 Sep 2017

METAR for:KEWR (Newark Intl, NJ, US)
Text:KEWR 200451Z 01015G23KT 10SM FEW030 BKN040 BKN048 22/18 A2985 RMK AO2 SLP109 T02220178 402720206 $
Temperature: 22.2°C ( 72°F)
Dewpoint: 17.8°C ( 64°F) [RH = 76%]
Pressure (altimeter):29.85 inches Hg (1010.9 mb) [Sea level pressure: 1010.9 mb]
Winds:from the N (10 degrees) at 17 MPH (15 knots; 7.7 m/s) gusting to 26 MPH (23 knots; 11.8 m/s)
Visibility:10 or more sm (16+ km)
Ceiling:4000 feet AGL
Clouds: few clouds at 3000 feet AGL, broken clouds at 4000 feet AGL, broken clouds at 4800 feet AGL
QC Flag:SOME DATA ABOVE MAY BE INACCURATE!!!"$" is an indication the sensor requires maintenance.